Time;durP1;ratioP1;P1;durP2;ratioP2;P2;SDS_P1;SDS_P2;PMS_P1;PMS_P2;Temp;Humidity;BMP_temperature;BMP_pressure;BME280_temperature;BME280_humidity;BME280_pressure;Samples;Min_cycle;Max_cycle;Signal;HPM_P1;HPM_P2
2022/12/21 00:01:37;;;;;;;6.75;6.13;;;2.10;99.90;;;;;;4981244;28;20220;-76
2022/12/21 00:04:06;;;;;;;5.95;5.35;;;2.10;99.90;;;;;;4973383;28;21083;-76
2022/12/21 00:06:36;;;;;;;6.10;5.60;;;2.10;99.90;;;;;;4987992;28;20209;-76
2022/12/21 00:09:05;;;;;;;6.20;5.60;;;2.10;99.90;;;;;;4983241;28;20225;-76
2022/12/21 00:11:35;;;;;;;5.95;5.40;;;2.10;99.90;;;;;;4984391;28;20201;-76
2022/12/21 00:14:04;;;;;;;6.15;5.55;;;2.10;99.90;;;;;;4976015;28;20249;-76
2022/12/21 00:16:35;;;;;;;5.43;5.03;;;2.10;99.90;;;;;;4987272;28;20234;-76
2022/12/21 00:19:03;;;;;;;6.00;5.50;;;2.10;99.90;;;;;;4978505;28;20779;-76
2022/12/21 00:21:32;;;;;;;5.85;5.35;;;2.10;99.90;;;;;;4986170;28;20680;-76
2022/12/21 00:24:00;;;;;;;6.47;5.78;;;2.20;99.90;;;;;;4973362;28;20308;-76
2022/12/21 00:26:30;;;;;;;6.15;5.55;;;2.20;99.90;;;;;;4977863;28;20216;-76
2022/12/21 00:28:59;;;;;;;6.28;5.68;;;2.20;99.90;;;;;;4976084;28;20222;-76
2022/12/21 00:31:28;;;;;;;6.13;5.63;;;2.20;99.90;;;;;;4978703;28;20198;-76
2022/12/21 00:33:58;;;;;;;6.30;5.80;;;2.10;99.90;;;;;;4978493;28;20233;-76
2022/12/21 00:36:28;;;;;;;6.03;5.53;;;2.10;99.90;;;;;;4977464;28;20201;-76
2022/12/21 00:38:56;;;;;;;6.85;6.18;;;2.10;99.90;;;;;;4984334;28;20224;-76
2022/12/21 00:41:26;;;;;;;6.50;5.90;;;2.10;99.90;;;;;;4976367;28;20225;-76
2022/12/21 00:43:54;;;;;;;6.38;5.80;;;2.00;99.90;;;;;;4981640;28;20713;-76
2022/12/21 00:46:24;;;;;;;5.95;5.45;;;2.00;99.90;;;;;;4976309;28;20197;-76
2022/12/21 00:48:52;;;;;;;6.18;5.65;;;2.00;99.90;;;;;;4978958;28;20221;-76
2022/12/21 00:51:22;;;;;;;6.15;5.65;;;2.10;99.90;;;;;;4983728;28;20204;-75
2022/12/21 00:53:50;;;;;;;5.80;5.20;;;2.10;99.90;;;;;;4960994;28;20241;-76
2022/12/21 00:56:18;;;;;;;5.85;5.35;;;2.10;99.90;;;;;;4978587;28;20197;-76
2022/12/21 00:58:45;;;;;;;6.18;5.68;;;2.10;99.90;;;;;;4978069;28;20243;-76
2022/12/21 01:01:15;;;;;;;5.57;5.07;;;2.10;99.90;;;;;;4976400;28;20201;-76
2022/12/21 01:03:43;;;;;;;5.55;5.10;;;2.20;99.90;;;;;;4988168;28;20228;-77
2022/12/21 01:06:14;;;;;;;5.55;5.15;;;2.20;99.90;;;;;;4985979;28;20573;-76
2022/12/21 01:08:44;;;;;;;5.18;4.78;;;2.20;99.90;;;;;;4973184;28;20758;-75
2022/12/21 01:11:12;;;;;;;4.57;4.28;;;2.20;99.90;;;;;;4978902;28;20572;-76
2022/12/21 01:13:41;;;;;;;4.82;4.53;;;2.20;99.90;;;;;;4978072;28;20749;-76
2022/12/21 01:16:12;;;;;;;5.18;4.78;;;2.20;99.90;;;;;;4979483;28;20212;-76
2022/12/21 01:18:40;;;;;;;5.57;5.18;;;2.30;99.90;;;;;;4974637;28;20225;-76
2022/12/21 01:21:08;;;;;;;6.47;5.97;;;2.30;99.90;;;;;;4983646;28;20267;-76
2022/12/21 01:23:35;;;;;;;5.50;5.00;;;2.30;99.90;;;;;;4980689;28;20244;-76
2022/12/21 01:26:04;;;;;;;6.00;5.47;;;2.40;99.90;;;;;;4975071;28;20205;-76
2022/12/21 01:28:32;;;;;;;5.53;5.07;;;2.40;99.90;;;;;;4977668;28;20209;-76
2022/12/21 01:31:01;;;;;;;6.15;5.65;;;2.40;99.90;;;;;;4972262;28;20197;-75
2022/12/21 01:33:30;;;;;;;5.38;4.97;;;2.30;99.90;;;;;;4970134;28;20236;-76
2022/12/21 01:35:57;;;;;;;5.70;5.30;;;2.30;99.90;;;;;;4976767;28;20202;-76
2022/12/21 01:38:24;;;;;;;5.60;5.10;;;2.30;99.90;;;;;;4990257;28;20264;-76
2022/12/21 01:40:52;;;;;;;6.30;5.70;;;2.30;99.90;;;;;;4982849;28;20264;-76
2022/12/21 01:43:42;;;;;;;6.07;5.45;;;2.30;99.90;;;;;;4971233;28;20268;-76
2022/12/21 01:46:12;;;;;;;5.60;5.10;;;2.30;99.90;;;;;;4971376;28;20192;-76
2022/12/21 01:48:44;;;;;;;5.50;5.10;;;2.30;99.90;;;;;;4979198;28;20240;-76
2022/12/21 01:51:14;;;;;;;5.68;5.25;;;2.30;99.90;;;;;;4968509;28;20647;-76
2022/12/21 01:53:45;;;;;;;5.85;5.30;;;2.30;99.90;;;;;;4986473;28;20233;-76
2022/12/21 01:56:14;;;;;;;5.60;5.20;;;2.30;99.90;;;;;;4970965;28;20204;-76
2022/12/21 01:58:43;;;;;;;5.53;5.13;;;2.30;99.90;;;;;;4974432;28;20776;-76
2022/12/21 02:01:11;;;;;;;5.10;4.60;;;2.30;99.90;;;;;;4968279;28;20197;-75
2022/12/21 02:03:42;;;;;;;5.20;4.70;;;2.30;99.90;;;;;;4973647;28;20892;-76
2022/12/21 02:06:11;;;;;;;5.38;4.97;;;2.40;99.90;;;;;;4964534;28;20194;-75
2022/12/21 02:08:39;;;;;;;5.18;4.78;;;2.30;99.90;;;;;;5013627;22;20539;-77
2022/12/21 02:11:08;;;;;;;5.00;4.70;;;2.30;99.90;;;;;;4991607;28;20197;-78
2022/12/21 02:13:35;;;;;;;5.00;4.60;;;2.30;99.90;;;;;;4989524;28;20295;-77
2022/12/21 02:16:28;;;;;;;5.53;5.13;;;2.30;99.90;;;;;;4993014;28;20246;-77
2022/12/21 02:19:34;;;;;;;4.88;4.57;;;2.30;99.90;;;;;;4985206;28;20310;-77
2022/12/21 02:22:05;;;;;;;5.40;5.00;;;2.30;99.90;;;;;;4991423;28;20588;-77
2022/12/21 02:25:17;;;;;;;5.20;4.80;;;2.30;99.90;;;;;;4989174;28;20734;-78
2022/12/21 02:28:15;;;;;;;5.07;4.75;;;2.30;99.90;;;;;;4986736;28;20275;-77
2022/12/21 02:31:12;;;;;;;4.78;4.38;;;2.30;99.90;;;;;;4989946;28;20687;-77
2022/12/21 02:33:56;;;;;;;5.20;4.80;;;2.30;99.90;;;;;;4977345;28;20240;-77
2022/12/21 02:36:39;;;;;;;4.82;4.53;;;2.30;99.90;;;;;;4988866;28;20220;-77
2022/12/21 02:39:16;;;;;;;5.18;4.78;;;2.30;99.90;;;;;;4990680;28;20236;-78
2022/12/21 02:41:53;;;;;;;4.43;4.13;;;2.40;99.90;;;;;;4987293;28;20193;-77
2022/12/21 02:44:26;;;;;;;5.03;4.63;;;2.40;99.90;;;;;;4990969;28;20370;-77
2022/12/21 02:47:10;;;;;;;5.07;4.68;;;2.40;99.90;;;;;;4990578;28;20247;-77
2022/12/21 02:49:45;;;;;;;4.50;4.20;;;2.40;99.90;;;;;;4991719;28;20316;-78
2022/12/21 02:52:15;;;;;;;4.82;4.53;;;2.50;99.90;;;;;;4989283;28;20259;-78
2022/12/21 02:54:43;;;;;;;5.18;4.78;;;2.50;99.90;;;;;;4989654;28;20228;-77
2022/12/21 02:57:11;;;;;;;5.50;5.10;;;2.50;99.90;;;;;;4990423;28;20227;-77
2022/12/21 02:59:42;;;;;;;5.20;4.80;;;2.40;99.90;;;;;;4987268;28;20229;-78
2022/12/21 03:02:37;;;;;;;5.13;4.72;;;2.40;99.90;;;;;;4986321;28;21127;-77
2022/12/21 03:05:16;;;;;;;5.18;4.68;;;2.40;99.90;;;;;;4989861;28;20232;-78
2022/12/21 03:07:52;;;;;;;5.47;5.05;;;2.40;99.90;;;;;;4990773;28;20246;-77
2022/12/21 03:10:30;;;;;;;5.10;4.70;;;2.30;99.90;;;;;;4985446;28;20223;-77
2022/12/21 03:13:05;;;;;;;5.55;5.15;;;2.30;99.90;;;;;;4990523;28;20184;-77
2022/12/21 03:15:42;;;;;;;5.15;4.75;;;2.30;99.90;;;;;;4988215;28;20212;-77
2022/12/21 03:18:21;;;;;;;6.00;5.50;;;2.30;99.90;;;;;;4988075;28;20196;-77
2022/12/21 03:20:56;;;;;;;5.43;4.93;;;2.30;99.90;;;;;;4990643;28;20221;-77
2022/12/21 03:23:30;;;;;;;5.63;5.22;;;2.30;99.90;;;;;;4987065;28;20232;-77
2022/12/21 03:26:03;;;;;;;7.80;6.75;;;2.30;99.90;;;;;;4990484;28;20199;-77
2022/12/21 03:28:34;;;;;;;6.60;6.10;;;2.30;99.90;;;;;;4988099;28;20229;-76
2022/12/21 03:31:06;;;;;;;7.63;6.93;;;2.10;99.90;;;;;;4994349;28;20724;-78
2022/12/21 03:33:39;;;;;;;7.03;6.32;;;2.00;99.90;;;;;;4993288;28;20193;-78
2022/12/21 03:36:10;;;;;;;6.00;5.60;;;1.90;99.90;;;;;;4992750;28;20201;-77
2022/12/21 03:38:43;;;;;;;6.70;6.10;;;1.90;99.90;;;;;;4991533;28;20232;-77
2022/12/21 03:41:15;;;;;;;6.85;6.35;;;1.80;99.90;;;;;;4994237;28;20620;-77
2022/12/21 03:43:43;;;;;;;5.75;5.35;;;1.80;99.90;;;;;;4990396;28;20291;-77
2022/12/21 03:46:15;;;;;;;5.60;5.20;;;1.90;99.90;;;;;;4993850;28;20201;-77
2022/12/21 03:48:49;;;;;;;6.45;5.95;;;1.90;99.90;;;;;;4993711;28;20229;-78
2022/12/21 03:51:26;;;;;;;6.45;5.95;;;2.00;99.90;;;;;;4993285;28;20820;-77
2022/12/21 03:54:00;;;;;;;5.60;5.20;;;2.00;99.90;;;;;;4988785;28;20227;-77
2022/12/21 03:56:31;;;;;;;5.32;4.95;;;2.10;99.90;;;;;;4992753;28;20220;-77
2022/12/21 03:58:59;;;;;;;6.00;5.60;;;2.10;99.90;;;;;;4993182;28;20217;-77
2022/12/21 04:01:37;;;;;;;5.82;5.43;;;2.20;99.90;;;;;;4990018;28;20212;-77
2022/12/21 04:04:12;;;;;;;5.90;5.22;;;2.20;99.90;;;;;;4992332;28;20317;-78
2022/12/21 04:06:41;;;;;;;5.90;5.50;;;2.20;99.90;;;;;;4993303;28;20200;-76
2022/12/21 04:09:09;;;;;;;5.68;5.28;;;2.20;99.90;;;;;;4988822;28;20250;-78
2022/12/21 04:14:21;;;;;;;5.80;5.40;;;2.20;99.90;;;;;;4991938;28;20231;-76
2022/12/21 04:16:49;;;;;;;5.28;4.88;;;2.30;99.90;;;;;;4992579;28;20205;-78
2022/12/21 04:22:02;;;;;;;5.68;5.28;;;2.30;99.90;;;;;;4992709;28;20937;-77
2022/12/21 04:29:58;;;;;;;5.35;4.95;;;2.40;99.90;;;;;;4992524;28;20224;-78
2022/12/21 04:32:25;;;;;;;5.30;4.90;;;2.40;99.90;;;;;;4992366;28;20263;-78
2022/12/21 04:34:54;;;;;;;5.53;5.00;;;2.40;99.90;;;;;;4991524;28;20217;-77
2022/12/21 04:37:32;;;;;;;5.22;4.82;;;2.40;99.90;;;;;;4993374;28;20652;-77
2022/12/21 04:40:00;;;;;;;5.38;4.95;;;2.40;99.90;;;;;;4992975;28;20592;-77
2022/12/21 04:42:27;;;;;;;5.88;5.38;;;2.40;99.90;;;;;;4991309;28;20252;-77
2022/12/21 04:44:54;;;;;;;5.50;5.10;;;2.40;99.90;;;;;;4989769;28;20221;-77
2022/12/21 04:47:21;;;;;;;5.90;5.40;;;2.40;99.90;;;;;;4992937;28;20260;-77
2022/12/21 04:49:48;;;;;;;6.40;5.90;;;2.40;99.90;;;;;;4992823;28;20228;-77
2022/12/21 04:52:17;;;;;;;6.43;5.82;;;2.40;99.90;;;;;;4990394;28;20618;-77
2022/12/21 04:54:44;;;;;;;6.85;6.32;;;2.40;99.90;;;;;;4993748;28;20220;-76
2022/12/21 04:57:11;;;;;;;5.97;5.47;;;2.30;99.90;;;;;;4993022;28;20717;-77
2022/12/21 04:59:38;;;;;;;6.85;6.35;;;2.30;99.90;;;;;;4991391;28;20224;-78
2022/12/21 05:02:05;;;;;;;6.57;5.97;;;2.30;99.90;;;;;;4991007;28;20205;-77
2022/12/21 05:04:32;;;;;;;5.82;5.35;;;2.30;99.90;;;;;;4992758;28;20221;-77
2022/12/21 05:06:59;;;;;;;6.55;5.93;;;2.30;99.90;;;;;;4992131;28;20197;-78
2022/12/21 05:11:59;;;;;;;6.10;5.60;;;2.30;99.90;;;;;;4979404;28;20212;-76
2022/12/21 05:14:27;;;;;;;5.57;5.18;;;2.40;99.90;;;;;;4977716;28;20720;-76
2022/12/21 05:16:54;;;;;;;5.82;5.43;;;2.40;99.90;;;;;;4978583;28;20208;-76
2022/12/21 05:19:23;;;;;;;5.68;5.25;;;2.40;99.90;;;;;;4949302;28;20226;-76
2022/12/21 05:21:51;;;;;;;6.25;5.75;;;2.40;99.90;;;;;;4967684;28;20238;-76
2022/12/21 05:24:18;;;;;;;6.28;5.78;;;2.40;99.90;;;;;;4969484;28;20221;-75
2022/12/21 05:26:46;;;;;;;6.13;5.60;;;2.40;99.90;;;;;;4968906;28;20202;-76
2022/12/21 05:29:15;;;;;;;5.78;5.38;;;2.50;99.90;;;;;;4968095;28;20244;-76
2022/12/21 05:31:42;;;;;;;5.63;5.22;;;2.50;99.90;;;;;;4962738;28;20208;-76
2022/12/21 05:34:10;;;;;;;6.75;6.25;;;2.50;99.90;;;;;;4953342;28;20788;-76
2022/12/21 05:36:37;;;;;;;6.40;5.90;;;2.50;99.90;;;;;;4969642;28;20609;-76
2022/12/21 05:39:05;;;;;;;6.82;6.22;;;2.50;99.90;;;;;;4950902;28;20232;-76
2022/12/21 05:41:32;;;;;;;6.50;6.00;;;2.40;99.90;;;;;;4977424;28;20198;-76
2022/12/21 05:44:00;;;;;;;6.97;6.38;;;2.40;99.90;;;;;;4972946;28;20221;-76
2022/12/21 05:46:29;;;;;;;6.90;5.82;;;2.40;99.90;;;;;;4970376;28;20202;-76
2022/12/21 05:48:56;;;;;;;6.63;6.13;;;2.30;99.90;;;;;;4968074;28;20233;-76
2022/12/21 05:51:24;;;;;;;5.85;5.35;;;2.30;99.90;;;;;;4972912;28;20201;-76
2022/12/21 05:53:51;;;;;;;5.80;5.25;;;2.30;99.90;;;;;;4969420;28;20325;-76
2022/12/21 05:56:19;;;;;;;5.20;4.80;;;2.30;99.90;;;;;;4964986;28;20194;-76
2022/12/21 05:58:46;;;;;;;5.93;5.53;;;2.40;99.90;;;;;;4952804;28;21167;-76
2022/12/21 06:01:14;;;;;;;5.80;5.38;;;2.40;99.90;;;;;;4953408;28;20201;-76
2022/12/21 06:03:44;;;;;;;5.85;5.35;;;2.40;99.90;;;;;;4968718;28;20308;-76
2022/12/21 06:06:13;;;;;;;5.97;5.50;;;2.50;99.90;;;;;;4965592;28;20209;-76
2022/12/21 06:08:40;;;;;;;5.50;5.10;;;2.50;99.90;;;;;;4969809;28;20229;-76
2022/12/21 06:11:10;;;;;;;5.28;4.82;;;2.50;99.90;;;;;;4951837;28;20201;-76
2022/12/21 06:13:38;;;;;;;6.88;6.28;;;2.50;99.90;;;;;;4967824;28;20583;-76
2022/12/21 06:16:09;;;;;;;6.38;5.88;;;2.50;99.90;;;;;;4968090;28;20198;-76
2022/12/21 06:18:36;;;;;;;5.88;5.38;;;2.50;99.90;;;;;;4959996;28;20233;-76
2022/12/21 06:21:05;;;;;;;5.95;5.43;;;2.40;99.90;;;;;;4965715;28;20205;-76
2022/12/21 06:23:33;;;;;;;6.60;6.00;;;2.30;99.90;;;;;;4966614;28;20225;-76
2022/12/21 06:26:02;;;;;;;6.45;5.90;;;2.30;99.90;;;;;;4964683;28;20198;-76
2022/12/21 06:28:30;;;;;;;5.90;5.50;;;2.20;99.90;;;;;;4964895;28;20229;-76
2022/12/21 06:31:04;;;;;;;8.05;6.70;;;2.30;99.90;;;;;;4970133;28;20202;-76
2022/12/21 06:33:31;;;;;;;6.93;6.32;;;2.20;99.90;;;;;;4962600;28;20316;-74
2022/12/21 06:35:59;;;;;;;6.75;6.22;;;2.20;99.90;;;;;;4945431;28;20213;-74
2022/12/21 06:38:28;;;;;;;7.43;6.72;;;2.20;99.90;;;;;;4966410;28;20218;-75
2022/12/21 06:40:57;;;;;;;8.30;7.53;;;2.20;99.90;;;;;;4962331;28;20210;-75
2022/12/21 06:43:26;;;;;;;7.18;6.57;;;2.30;99.90;;;;;;4963496;28;20210;-75
2022/12/21 06:45:55;;;;;;;7.57;6.90;;;2.30;99.90;;;;;;4964596;28;20206;-75
2022/12/21 06:48:23;;;;;;;7.32;6.72;;;2.30;99.90;;;;;;4963091;28;20324;-75
2022/12/21 06:50:54;;;;;;;7.03;6.47;;;2.30;99.90;;;;;;4951357;28;20270;-74
2022/12/21 06:53:22;;;;;;;6.68;6.18;;;2.40;99.90;;;;;;4965513;28;20209;-74
2022/12/21 06:55:51;;;;;;;7.40;6.80;;;2.40;99.90;;;;;;4964600;28;20212;-73
2022/12/21 06:58:19;;;;;;;6.43;6.03;;;2.40;99.90;;;;;;4967725;28;20721;-74
2022/12/21 07:00:46;;;;;;;6.53;6.03;;;2.40;99.90;;;;;;4962889;28;20198;-75
2022/12/21 07:03:13;;;;;;;6.65;6.13;;;2.40;99.90;;;;;;4967808;28;20209;-74
2022/12/21 07:05:40;;;;;;;7.80;7.00;;;2.40;99.90;;;;;;4968189;28;20221;-75
2022/12/21 07:08:08;;;;;;;6.90;6.30;;;2.40;99.90;;;;;;4964502;28;20699;-75
2022/12/21 07:10:38;;;;;;;6.70;6.10;;;2.40;99.90;;;;;;4964193;28;20221;-75
2022/12/21 07:13:07;;;;;;;6.55;6.05;;;2.40;99.90;;;;;;4956086;28;20201;-76
2022/12/21 07:15:36;;;;;;;6.18;5.68;;;2.50;99.90;;;;;;4926287;28;20264;-75
2022/12/21 07:18:03;;;;;;;6.78;6.28;;;2.50;99.90;;;;;;4961136;28;20233;-75
2022/12/21 07:20:31;;;;;;;7.55;6.85;;;2.50;99.90;;;;;;4966373;28;20308;-75
2022/12/21 07:22:58;;;;;;;8.18;7.38;;;2.60;99.90;;;;;;4941987;28;20205;-75
2022/12/21 07:25:25;;;;;;;6.80;6.20;;;2.60;99.90;;;;;;4957669;28;20240;-76
2022/12/21 07:27:53;;;;;;;7.32;6.72;;;2.50;99.90;;;;;;4962211;28;20229;-76
2022/12/21 07:30:22;;;;;;;6.82;6.22;;;2.60;99.90;;;;;;4961516;28;20217;-76
2022/12/21 07:32:49;;;;;;;7.43;6.82;;;2.50;99.90;;;;;;4940823;28;20742;-75
2022/12/21 07:35:17;;;;;;;6.75;6.18;;;2.50;99.90;;;;;;4944241;28;20520;-75
2022/12/21 07:37:44;;;;;;;7.50;6.90;;;2.50;99.90;;;;;;4961865;28;20231;-76
2022/12/21 07:40:13;;;;;;;7.43;6.72;;;2.50;99.90;;;;;;4961694;28;20526;-76
2022/12/21 07:42:41;;;;;;;6.40;5.88;;;2.50;99.90;;;;;;4938825;28;20214;-75
2022/12/21 07:45:09;;;;;;;6.63;6.13;;;2.50;99.90;;;;;;4964165;28;20222;-77
2022/12/21 07:47:38;;;;;;;6.18;5.68;;;2.60;99.90;;;;;;4965412;28;20244;-76
2022/12/21 07:50:08;;;;;;;6.75;6.25;;;2.60;99.90;;;;;;4962098;28;20228;-76
2022/12/21 07:52:38;;;;;;;7.18;6.57;;;2.60;99.90;;;;;;4960139;28;20574;-77
2022/12/21 07:55:06;;;;;;;7.20;6.60;;;2.70;99.90;;;;;;4948642;28;20272;-77
2022/12/21 07:57:34;;;;;;;7.43;6.82;;;2.70;99.90;;;;;;4965987;28;20286;-76
2022/12/21 08:00:01;;;;;;;7.75;7.05;;;2.80;99.90;;;;;;4975861;28;20215;-77
2022/12/21 08:02:29;;;;;;;6.53;5.97;;;2.80;99.90;;;;;;4967582;28;20201;-76
2022/12/21 08:04:58;;;;;;;6.75;6.15;;;2.80;99.90;;;;;;4963024;28;20221;-76
2022/12/21 08:07:25;;;;;;;6.63;6.13;;;2.80;99.90;;;;;;4945245;28;20601;-77
2022/12/21 08:09:53;;;;;;;7.32;6.72;;;2.80;99.90;;;;;;4927200;28;20708;-78
2022/12/21 08:12:20;;;;;;;7.97;7.35;;;2.80;99.90;;;;;;4964426;28;20773;-78
2022/12/21 08:14:48;;;;;;;7.43;6.72;;;2.80;99.90;;;;;;4966812;28;20221;-78
2022/12/21 08:17:16;;;;;;;8.15;7.45;;;2.80;99.90;;;;;;4951248;28;20217;-78
2022/12/21 08:19:43;;;;;;;8.10;7.40;;;2.80;99.90;;;;;;4962532;28;20272;-78
2022/12/21 08:22:12;;;;;;;7.70;7.07;;;2.80;99.90;;;;;;4963891;28;20198;-78
2022/12/21 08:24:40;;;;;;;8.82;7.97;;;2.90;99.90;;;;;;4962140;28;20717;-78
2022/12/21 08:27:07;;;;;;;8.55;7.68;;;2.90;99.90;;;;;;4952393;28;20699;-78
2022/12/21 08:29:36;;;;;;;8.10;7.40;;;2.90;99.90;;;;;;4963030;28;20225;-79
2022/12/21 08:32:04;;;;;;;8.43;7.63;;;2.90;99.90;;;;;;4964992;28;20213;-76
2022/12/21 08:34:32;;;;;;;8.57;7.78;;;3.00;99.90;;;;;;4968492;28;20888;-77
2022/12/21 08:37:00;;;;;;;8.43;7.63;;;3.00;99.90;;;;;;4937420;28;20232;-77
2022/12/21 08:39:29;;;;;;;8.80;8.00;;;3.10;99.90;;;;;;4949362;28;20251;-80
2022/12/21 08:41:56;;;;;;;8.15;7.45;;;3.20;99.90;;;;;;4936026;28;20241;-77
2022/12/21 08:44:24;;;;;;;9.70;8.25;;;3.20;99.90;;;;;;4949190;28;20461;-77
2022/12/21 08:46:51;;;;;;;9.18;8.32;;;3.20;99.90;;;;;;4965447;28;20698;-77
2022/12/21 08:49:19;;;;;;;8.27;7.57;;;3.30;99.90;;;;;;4955796;28;20275;-77
2022/12/21 08:51:46;;;;;;;9.45;8.57;;;3.30;99.90;;;;;;4970477;28;20852;-77
2022/12/21 08:54:13;;;;;;;8.35;7.55;;;3.30;99.90;;;;;;4969797;28;20228;-77
2022/12/21 08:56:42;;;;;;;8.60;7.47;;;3.40;99.90;;;;;;4966609;28;20209;-77
2022/12/21 08:59:11;;;;;;;8.77;7.97;;;3.40;99.90;;;;;;4950030;28;20899;-77
2022/12/21 09:01:39;;;;;;;8.20;7.50;;;3.40;99.90;;;;;;4965213;28;20217;-77
2022/12/21 09:04:06;;;;;;;9.20;8.30;;;3.40;99.90;;;;;;4950462;28;20761;-77
2022/12/21 09:06:34;;;;;;;8.93;8.18;;;3.40;99.90;;;;;;4968919;28;20217;-78
2022/12/21 09:09:01;;;;;;;8.30;7.60;;;3.50;99.90;;;;;;4980759;28;20237;-77
2022/12/21 09:11:28;;;;;;;9.60;8.80;;;3.50;99.90;;;;;;4958450;28;20205;-77
2022/12/21 09:13:57;;;;;;;9.10;8.40;;;3.60;99.90;;;;;;4950141;28;20225;-77
2022/12/21 09:16:27;;;;;;;8.95;8.18;;;3.60;99.90;;;;;;4965663;28;20335;-78
2022/12/21 09:18:55;;;;;;;8.82;7.95;;;3.70;99.90;;;;;;4949061;28;20225;-78
2022/12/21 09:21:25;;;;;;;9.02;8.15;;;3.70;99.90;;;;;;4967855;28;20197;-78
2022/12/21 09:23:53;;;;;;;9.05;8.25;;;3.70;99.90;;;;;;4944742;28;20229;-77
2022/12/21 09:26:21;;;;;;;9.38;8.48;;;3.70;99.90;;;;;;4962297;28;20248;-78
2022/12/21 09:28:48;;;;;;;8.65;7.85;;;3.70;99.90;;;;;;4967104;28;20236;-78
2022/12/21 09:31:19;;;;;;;10.40;9.40;;;3.80;99.90;;;;;;4948909;28;20201;-78
2022/12/21 09:33:46;;;;;;;9.38;8.43;;;3.80;99.90;;;;;;4964072;28;20698;-78
2022/12/21 09:36:16;;;;;;;9.43;8.52;;;3.70;99.90;;;;;;4968603;28;20204;-78
2022/12/21 09:38:44;;;;;;;9.65;8.40;;;3.70;99.90;;;;;;4947109;28;20324;-78
2022/12/21 09:41:30;;;;;;;8.25;7.55;;;3.70;99.90;;;;;;4964133;28;20212;-78
2022/12/21 09:44:14;;;;;;;9.13;8.32;;;3.80;99.90;;;;;;4961839;28;20524;-78
2022/12/21 09:46:45;;;;;;;9.45;8.60;;;3.80;99.90;;;;;;4950040;28;20197;-78
2022/12/21 09:49:18;;;;;;;9.07;8.18;;;3.90;99.90;;;;;;4966130;28;20726;-79
2022/12/21 09:51:53;;;;;;;9.40;8.60;;;3.90;99.90;;;;;;4966436;28;20205;-77
2022/12/21 09:54:25;;;;;;;8.80;8.00;;;3.90;99.90;;;;;;4974880;28;20235;-78
2022/12/21 09:56:56;;;;;;;8.52;7.80;;;3.90;99.90;;;;;;4967679;28;20213;-78
2022/12/21 09:59:23;;;;;;;9.18;8.38;;;4.00;99.90;;;;;;4943478;28;20222;-78
2022/12/21 10:02:02;;;;;;;10.05;9.18;;;4.00;99.90;;;;;;4962848;28;20667;-77
2022/12/21 10:04:44;;;;;;;9.27;8.48;;;4.10;99.90;;;;;;4960967;28;20703;-77
2022/12/21 10:07:44;;;;;;;9.50;8.50;;;4.10;99.90;;;;;;4962454;28;20229;-79
2022/12/21 10:10:22;;;;;;;9.68;8.75;;;4.10;99.90;;;;;;4961702;28;20214;-78
2022/12/21 10:12:57;;;;;;;9.20;8.32;;;4.10;99.90;;;;;;4948664;28;20263;-78
2022/12/21 10:15:32;;;;;;;8.60;7.80;;;4.10;99.90;;;;;;4966510;28;20217;-78
2022/12/21 10:18:11;;;;;;;9.95;9.00;;;4.10;99.90;;;;;;4965116;28;20262;-78
2022/12/21 10:20:47;;;;;;;9.02;8.13;;;4.10;99.90;;;;;;4973291;28;20592;-78
2022/12/21 10:23:20;;;;;;;9.65;8.73;;;4.20;99.90;;;;;;4960165;28;20205;-78
2022/12/21 10:25:50;;;;;;;9.98;9.00;;;4.20;99.90;;;;;;4958873;28;20230;-79
2022/12/21 10:28:27;;;;;;;10.32;9.23;;;4.10;99.90;;;;;;4958384;28;20220;-78
2022/12/21 10:31:03;;;;;;;10.95;9.85;;;4.20;99.90;;;;;;4962203;28;20255;-80
2022/12/21 10:33:37;;;;;;;11.25;10.15;;;4.10;99.90;;;;;;4962659;28;20197;-79
2022/12/21 10:36:07;;;;;;;13.68;12.27;;;4.10;99.90;;;;;;4963849;28;20710;-79
2022/12/21 10:38:36;;;;;;;13.30;11.93;;;4.00;99.90;;;;;;4947528;28;20721;-79
2022/12/21 10:41:09;;;;;;;11.82;10.73;;;3.90;99.90;;;;;;4949706;28;20308;-79
2022/12/21 10:43:40;;;;;;;14.85;12.63;;;3.90;99.90;;;;;;4964320;28;20229;-76
2022/12/21 10:46:08;;;;;;;14.82;13.23;;;4.00;99.90;;;;;;4959751;28;20503;-77
2022/12/21 10:48:38;;;;;;;12.75;11.45;;;4.00;99.90;;;;;;4948097;28;20237;-76
2022/12/21 10:51:15;;;;;;;12.20;11.00;;;4.10;99.90;;;;;;4965595;28;20210;-76
2022/12/21 10:53:59;;;;;;;12.32;11.10;;;4.20;99.90;;;;;;4964333;28;20220;-76
2022/12/21 10:56:28;;;;;;;15.43;13.82;;;4.30;99.90;;;;;;4961295;28;20281;-76
2022/12/21 10:59:06;;;;;;;11.63;10.43;;;4.40;99.90;;;;;;4963620;28;20225;-76
2022/12/21 11:01:36;;;;;;;10.70;9.60;;;4.40;99.90;;;;;;4963857;28;20209;-76
2022/12/21 11:04:15;;;;;;;10.10;9.15;;;4.50;99.90;;;;;;4961098;28;20233;-75
2022/12/21 11:06:57;;;;;;;10.23;9.32;;;4.60;99.90;;;;;;4939497;28;20287;-76
2022/12/21 11:09:36;;;;;;;10.90;9.75;;;4.70;99.90;;;;;;4965148;28;20225;-76
2022/12/21 11:12:20;;;;;;;11.82;10.48;;;4.90;99.90;;;;;;4962190;28;20217;-76
2022/12/21 11:14:48;;;;;;;13.10;11.50;;;5.20;99.90;;;;;;4956168;28;20575;-76
2022/12/21 11:17:21;;;;;;;13.23;11.85;;;5.30;99.90;;;;;;4961294;28;20229;-76
2022/12/21 11:19:53;;;;;;;11.68;10.52;;;5.30;99.90;;;;;;4956522;28;20304;-75
2022/12/21 11:22:29;;;;;;;11.23;10.13;;;5.30;99.90;;;;;;4961040;28;20206;-76
2022/12/21 11:24:59;;;;;;;11.32;10.23;;;5.40;99.90;;;;;;4963289;28;20319;-75
2022/12/21 11:27:29;;;;;;;11.23;10.13;;;5.70;99.90;;;;;;4971228;28;20229;-75
2022/12/21 11:29:59;;;;;;;11.85;10.75;;;5.90;99.90;;;;;;4969178;28;22063;-75
2022/12/21 11:32:30;;;;;;;14.43;12.00;;;6.10;99.90;;;;;;4961643;28;20239;-75
2022/12/21 11:35:00;;;;;;;20.13;12.45;;;6.10;99.90;;;;;;4960050;28;20229;-75
2022/12/21 11:37:42;;;;;;;12.82;11.60;;;6.10;99.90;;;;;;4960107;28;20244;-74
2022/12/21 11:40:16;;;;;;;16.92;15.23;;;6.20;99.90;;;;;;4958353;28;20226;-75
2022/12/21 11:42:54;;;;;;;21.08;18.98;;;6.60;99.90;;;;;;4959734;28;20247;-75
2022/12/21 11:45:25;;;;;;;17.80;15.48;;;6.80;99.90;;;;;;4961791;28;20217;-74
2022/12/21 11:48:10;;;;;;;15.93;14.32;;;6.70;99.90;;;;;;4964883;28;20225;-75
2022/12/21 11:50:51;;;;;;;14.23;12.73;;;6.60;99.90;;;;;;4949398;28;20233;-74
2022/12/21 11:53:44;;;;;;;14.07;12.68;;;6.50;99.90;;;;;;4963034;28;20619;-75
2022/12/21 11:56:26;;;;;;;15.10;13.50;;;6.40;99.90;;;;;;4968099;28;20198;-74
2022/12/21 11:59:20;;;;;;;15.73;14.10;;;6.40;99.90;;;;;;4961796;28;20252;-74
2022/12/21 12:01:58;;;;;;;13.70;12.25;;;6.40;99.90;;;;;;4963029;28;20205;-72
2022/12/21 12:04:43;;;;;;;13.38;11.98;;;6.40;99.90;;;;;;4965239;28;20854;-72
2022/12/21 12:07:26;;;;;;;13.57;12.23;;;6.40;99.90;;;;;;4960966;28;20229;-74
2022/12/21 12:10:22;;;;;;;12.30;11.00;;;6.60;99.90;;;;;;4947489;28;20228;-74
2022/12/21 12:13:01;;;;;;;13.70;12.30;;;6.80;99.90;;;;;;4968364;28;20260;-76
2022/12/21 12:15:39;;;;;;;14.63;13.07;;;6.70;99.90;;;;;;4965374;28;20209;-73
2022/12/21 12:18:30;;;;;;;14.23;12.70;;;6.80;99.90;;;;;;4966343;28;20209;-74
2022/12/21 12:21:40;;;;;;;13.38;12.00;;;7.10;99.90;;;;;;4965280;28;20230;-74
2022/12/21 12:24:41;;;;;;;15.57;11.65;;;7.40;99.90;;;;;;4890574;29;20294;-74
2022/12/21 12:27:22;;;;;;;10.55;9.50;;;7.40;99.90;;;;;;4967529;28;20233;-74
2022/12/21 12:30:10;;;;;;;10.63;9.60;;;7.50;99.90;;;;;;4951251;28;20225;-73
2022/12/21 12:33:05;;;;;;;12.82;10.25;;;7.40;99.90;;;;;;4967077;28;20682;-74
2022/12/21 12:35:56;;;;;;;12.35;10.98;;;7.20;99.90;;;;;;4960302;28;20218;-75
2022/12/21 12:38:29;;;;;;;9.95;9.00;;;7.10;99.90;;;;;;4964482;28;20221;-75
2022/12/21 12:41:14;;;;;;;12.27;11.07;;;7.00;99.90;;;;;;4970030;28;20264;-74
2022/12/21 12:43:55;;;;;;;9.65;8.75;;;6.90;99.90;;;;;;4966240;28;20796;-74
2022/12/21 12:46:32;;;;;;;9.88;8.90;;;7.00;99.90;;;;;;4965343;28;20218;-75
2022/12/21 12:49:08;;;;;;;9.88;8.98;;;7.00;99.90;;;;;;4963644;28;20236;-74
2022/12/21 12:51:44;;;;;;;10.23;9.20;;;7.00;99.90;;;;;;4962022;28;20686;-74
2022/12/21 12:54:23;;;;;;;9.60;8.73;;;7.00;99.90;;;;;;4967178;28;20702;-75
2022/12/21 12:57:02;;;;;;;11.00;8.73;;;6.90;99.90;;;;;;4964307;28;20197;-76
2022/12/21 12:59:35;;;;;;;12.77;9.27;;;6.80;99.90;;;;;;4964185;28;20225;-76
2022/12/21 13:02:08;;;;;;;8.30;7.60;;;6.60;99.90;;;;;;4948073;28;20209;-75
2022/12/21 13:04:58;;;;;;;8.63;7.82;;;6.50;99.90;;;;;;4968584;28;20630;-75
2022/12/21 13:07:38;;;;;;;9.50;8.60;;;6.50;99.90;;;;;;4947673;28;20293;-76
2022/12/21 13:10:16;;;;;;;10.95;8.55;;;6.50;99.90;;;;;;4943618;28;20236;-76
2022/12/21 13:12:55;;;;;;;12.52;9.80;;;6.50;99.90;;;;;;4964185;28;20201;-75
2022/12/21 13:15:26;;;;;;;11.18;10.15;;;6.50;99.90;;;;;;4945576;28;20722;-76
2022/12/21 13:18:01;;;;;;;11.20;10.10;;;6.40;99.90;;;;;;4962076;28;20228;-76
2022/12/21 13:20:30;;;;;;;10.90;9.52;;;6.40;99.90;;;;;;4961958;28;20245;-75
2022/12/21 13:23:03;;;;;;;12.48;11.27;;;6.50;99.90;;;;;;4962429;28;20214;-75
2022/12/21 13:25:45;;;;;;;11.65;10.52;;;6.60;99.90;;;;;;4964112;28;20220;-76
2022/12/21 13:28:20;;;;;;;10.77;9.48;;;6.60;99.90;;;;;;4962018;28;20233;-75
2022/12/21 13:30:50;;;;;;;11.38;10.27;;;6.50;99.90;;;;;;4947229;28;20237;-75
2022/12/21 13:33:21;;;;;;;11.30;10.20;;;6.50;99.90;;;;;;4945299;28;20198;-76